Time;durP1;ratioP1;P1;durP2;ratioP2;P2;SDS_P1;SDS_P2;PMS_P1;PMS_P2;Temp;Humidity;BMP_temperature;BMP_pressure;BME280_temperature;BME280_humidity;BME280_pressure;Samples;Min_cycle;Max_cycle;Signal;HPM_P1;HPM_P2
2022/07/08 00:01:54;;;;;;;9.65;2.42;;;;;;;13.62;70.84;103035.31;6155145;23;20006;-84
2022/07/08 00:04:20;;;;;;;10.63;2.22;;;;;;;13.65;71.73;103044.72;6155002;23;20037;-81
2022/07/08 00:06:45;;;;;;;9.55;2.15;;;;;;;13.56;71.94;103032.97;6155158;23;20001;-81
2022/07/08 00:09:11;;;;;;;6.45;1.90;;;;;;;13.62;71.26;103044.84;6154746;23;20379;-84
2022/07/08 00:11:37;;;;;;;9.38;2.05;;;;;;;13.67;71.59;103045.53;6155258;23;20013;-79
2022/07/08 00:14:03;;;;;;;11.40;2.88;;;;;;;13.69;71.37;103048.91;6154890;23;20316;-75
2022/07/08 00:16:29;;;;;;;9.82;2.50;;;;;;;13.68;72.61;103049.81;6154871;23;20001;-80
2022/07/08 00:18:54;;;;;;;13.00;2.60;;;;;;;13.65;73.11;103047.31;6155014;23;20048;-85
2022/07/08 00:21:20;;;;;;;10.30;2.47;;;;;;;13.55;72.98;103030.44;6155088;23;20009;-83
2022/07/08 00:23:46;;;;;;;14.85;2.47;;;;;;;13.64;73.89;103048.22;6155074;23;20009;-80
2022/07/08 00:26:11;;;;;;;9.00;2.10;;;;;;;13.56;74.54;103050.28;6154551;23;20012;-83
2022/07/08 00:28:37;;;;;;;9.75;2.63;;;;;;;13.53;74.61;103040.88;6154711;23;20005;-76
2022/07/08 00:31:02;;;;;;;12.07;3.30;;;;;;;13.36;75.47;103031.16;6154867;23;20001;-78
2022/07/08 00:33:27;;;;;;;9.65;2.95;;;;;;;13.40;75.93;103050.91;6154505;23;20013;-84
2022/07/08 00:35:53;;;;;;;9.05;2.40;;;;;;;13.30;76.57;103046.16;6155058;23;20076;-77
2022/07/08 00:38:18;;;;;;;9.60;2.97;;;;;;;13.21;77.30;103039.56;6154006;23;20083;-80
2022/07/08 00:40:43;;;;;;;11.95;2.75;;;;;;;13.00;77.39;103029.97;6154908;23;20421;-84
2022/07/08 00:43:26;;;;;;;10.98;2.80;;;;;;;13.08;77.13;103053.88;6154580;23;20118;-79
2022/07/08 00:45:52;;;;;;;15.23;3.00;;;;;;;13.03;77.96;103056.63;6155637;23;20360;-85
2022/07/08 00:48:17;;;;;;;12.65;2.80;;;;;;;12.99;78.24;103049.03;6156851;23;20056;-80
2022/07/08 00:50:43;;;;;;;9.23;3.00;;;;;;;12.89;78.58;103049.38;6156866;23;20296;-85
2022/07/08 00:53:09;;;;;;;10.68;3.92;;;;;;;12.75;79.28;103050.78;6156838;23;20009;-79
2022/07/08 00:55:34;;;;;;;10.57;2.78;;;;;;;12.64;79.61;103052.00;6156740;23;20006;-82
2022/07/08 00:58:00;;;;;;;9.38;3.35;;;;;;;12.55;80.53;103047.16;6156972;23;20013;-76
2022/07/08 01:00:25;;;;;;;13.60;3.53;;;;;;;12.36;80.66;103027.97;6156805;23;20005;-78
2022/07/08 01:02:51;;;;;;;9.93;2.60;;;;;;;12.46;81.16;103057.84;6156475;23;20009;-73
2022/07/08 01:05:16;;;;;;;9.35;3.35;;;;;;;12.41;81.81;103053.75;6156947;23;20089;-81
2022/07/08 01:07:43;;;;;;;11.23;3.05;;;;;;;12.34;81.68;103055.69;6156665;23;20010;-74
2022/07/08 01:10:09;;;;;;;10.10;3.17;;;;;;;12.26;82.03;103060.28;6156451;23;20001;-73
2022/07/08 01:12:34;;;;;;;9.90;3.30;;;;;;;12.19;82.26;103059.69;6156787;23;20008;-78
2022/07/08 01:15:00;;;;;;;8.85;3.38;;;;;;;12.00;83.01;103043.06;6156457;23;20009;-81
2022/07/08 01:17:28;;;;;;;14.48;3.67;;;;;;;12.02;82.89;103059.41;6130204;23;20029;-83
2022/07/08 01:19:54;;;;;;;13.40;3.58;;;;;;;11.86;83.57;103045.25;6156234;23;20301;-80
2022/07/08 01:22:19;;;;;;;12.18;3.97;;;;;;;11.81;83.81;103044.56;6156536;23;20009;-78
2022/07/08 01:24:44;;;;;;;7.85;3.35;;;;;;;11.87;84.05;103065.91;6156498;23;20005;-81
2022/07/08 01:27:10;;;;;;;10.25;3.67;;;;;;;11.70;84.20;103048.31;6156486;23;20014;-78
2022/07/08 01:29:35;;;;;;;12.93;3.38;;;;;;;11.77;84.56;103059.31;6156434;23;20009;-76
2022/07/08 01:32:01;;;;;;;8.45;3.55;;;;;;;11.74;84.66;103055.09;6156460;23;20002;-76
2022/07/08 01:34:26;;;;;;;10.75;3.75;;;;;;;11.70;84.64;103057.81;6155865;23;20021;-83
2022/07/08 01:36:51;;;;;;;12.80;4.07;;;;;;;11.63;84.96;103062.34;6156208;23;20005;-84
2022/07/08 01:39:17;;;;;;;12.07;4.50;;;;;;;11.63;85.29;103061.50;6156430;23;20020;-81
2022/07/08 01:41:42;;;;;;;14.40;4.63;;;;;;;11.58;85.95;103053.88;6156530;23;20033;-73
2022/07/08 01:44:08;;;;;;;12.73;4.25;;;;;;;11.59;86.42;103059.88;6156200;23;20465;-79
2022/07/08 01:46:34;;;;;;;13.68;3.85;;;;;;;11.52;86.44;103035.97;6156454;23;20068;-82
2022/07/08 01:48:59;;;;;;;11.15;3.80;;;;;;;11.60;86.52;103057.28;6130262;23;20006;-82
2022/07/08 01:51:24;;;;;;;12.20;3.70;;;;;;;11.48;86.68;103036.94;6129775;23;20045;-76
2022/07/08 01:53:50;;;;;;;19.92;4.85;;;;;;;11.58;86.98;103051.28;6156173;23;20040;-74
2022/07/08 01:56:15;;;;;;;13.27;4.55;;;;;;;11.56;87.58;103040.13;6156148;23;20438;-79
2022/07/08 01:58:40;;;;;;;8.23;3.80;;;;;;;11.49;86.89;103038.63;6155828;23;20008;-72
2022/07/08 02:01:06;;;;;;;11.63;3.80;;;;;;;11.47;87.36;103033.50;6155860;23;20080;-75
2022/07/08 02:03:31;;;;;;;10.75;4.32;;;;;;;11.51;87.62;103048.97;6156215;23;20005;-78
2022/07/08 02:05:56;;;;;;;14.45;3.95;;;;;;;11.57;87.60;103046.16;6156344;23;20328;-78
2022/07/08 02:08:23;;;;;;;12.18;3.67;;;;;;;11.41;87.73;103019.94;6155755;23;20033;-84
2022/07/08 02:13:32;;;;;;;8.98;4.00;;;;;;;11.63;87.94;103051.16;6155986;23;20020;-78
2022/07/08 02:15:57;;;;;;;9.38;3.55;;;;;;;11.57;87.70;103052.19;6143683;23;20029;-71
2022/07/08 02:18:23;;;;;;;11.02;4.07;;;;;;;11.53;88.02;103057.50;6155764;23;20032;-82
2022/07/08 02:20:48;;;;;;;9.50;3.88;;;;;;;11.48;87.92;103053.31;6156119;23;20009;-82
2022/07/08 02:23:13;;;;;;;10.70;3.83;;;;;;;11.46;88.21;103054.25;6155730;23;20029;-81
2022/07/08 02:25:39;;;;;;;6.90;3.75;;;;;;;11.43;88.25;103054.38;6155840;23;20029;-83
2022/07/08 02:28:04;;;;;;;17.30;4.20;;;;;;;11.41;88.43;103061.34;6155811;23;20005;-79
2022/07/08 02:30:29;;;;;;;9.75;4.20;;;;;;;11.35;89.07;103049.41;6155629;23;20060;-85
2022/07/08 02:32:55;;;;;;;9.48;3.50;;;;;;;11.38;88.58;103054.50;6155808;23;20005;-79
2022/07/08 02:35:20;;;;;;;15.35;4.53;;;;;;;11.31;89.31;103049.56;6155827;23;20089;-80
2022/07/08 02:37:45;;;;;;;11.68;4.20;;;;;;;11.40;89.49;103065.63;6155565;23;20406;-72
2022/07/08 02:40:11;;;;;;;10.90;4.30;;;;;;;11.38;89.70;103046.72;6155751;23;20042;-75
2022/07/08 02:42:36;;;;;;;12.43;4.80;;;;;;;11.45;89.58;103055.16;6155945;23;20149;-76
2022/07/08 02:45:01;;;;;;;14.98;5.03;;;;;;;11.53;89.65;103060.94;6155472;23;20515;-72
2022/07/08 02:47:27;;;;;;;11.13;4.50;;;;;;;11.51;90.07;103049.81;6155699;23;20097;-81
2022/07/08 02:49:52;;;;;;;12.00;4.55;;;;;;;11.58;90.28;103064.22;6155646;23;20089;-78
2022/07/08 02:52:18;;;;;;;11.02;4.57;;;;;;;11.57;90.15;103062.53;6155884;23;20411;-85
2022/07/08 02:54:43;;;;;;;10.32;4.60;;;;;;;11.40;90.37;103026.81;6155653;23;20002;-73
2022/07/08 02:57:08;;;;;;;10.93;4.47;;;;;;;11.51;89.99;103051.53;6155396;23;20010;-80
2022/07/08 02:59:34;;;;;;;10.50;4.20;;;;;;;11.46;90.12;103060.28;6155535;23;20116;-76
2022/07/08 03:01:59;;;;;;;12.25;4.25;;;;;;;11.47;90.23;103055.94;6155906;23;20002;-75
2022/07/08 03:04:24;;;;;;;11.52;4.30;;;;;;;11.48;90.22;103065.41;6155696;23;20010;-75
2022/07/08 03:06:50;;;;;;;14.48;4.50;;;;;;;11.50;90.33;103061.03;6155774;23;20009;-79
2022/07/08 03:09:15;;;;;;;8.68;3.95;;;;;;;11.54;90.35;103062.63;6155732;23;20297;-78
2022/07/08 03:11:40;;;;;;;11.50;4.18;;;;;;;11.39;90.18;103038.06;6155499;23;20006;-81
2022/07/08 03:14:06;;;;;;;13.93;4.05;;;;;;;11.51;90.12;103062.75;6155190;23;20040;-78
2022/07/08 03:16:31;;;;;;;12.45;4.30;;;;;;;11.50;90.42;103063.59;6155517;23;20002;-81
2022/07/08 03:18:56;;;;;;;10.40;3.90;;;;;;;11.48;90.20;103063.66;6155500;23;20305;-72
2022/07/08 03:21:22;;;;;;;9.48;4.40;;;;;;;11.31;90.37;103036.66;6155323;23;20005;-75
2022/07/08 03:23:47;;;;;;;8.80;4.35;;;;;;;11.41;90.53;103058.75;6155614;23;20008;-72
2022/07/08 03:26:13;;;;;;;12.65;4.28;;;;;;;11.19;90.47;103049.03;6155023;23;20479;-85
2022/07/08 03:28:38;;;;;;;10.45;4.22;;;;;;;11.15;90.62;103042.28;6155190;23;20006;-83
2022/07/08 03:31:04;;;;;;;12.63;4.40;;;;;;;11.15;90.89;103050.03;6155805;23;20001;-85
2022/07/08 03:33:29;;;;;;;11.32;4.65;;;;;;;11.20;90.98;103061.06;6155663;23;20016;-86
2022/07/08 03:35:54;;;;;;;11.60;4.57;;;;;;;11.19;91.01;103071.47;6155269;23;20093;-86
2022/07/08 03:38:20;;;;;;;15.52;4.68;;;;;;;11.19;90.99;103069.72;6155462;23;20025;-83
2022/07/08 03:43:29;;;;;;;11.07;4.93;;;;;;;10.86;91.41;103025.03;6155262;23;20044;-86
2022/07/08 03:45:55;;;;;;;10.90;4.57;;;;;;;11.15;91.89;103077.63;6155614;23;20360;-84
2022/07/08 03:48:21;;;;;;;12.30;4.95;;;;;;;11.18;91.30;103074.94;6155066;23;20013;-87
2022/07/08 03:50:46;;;;;;;14.05;4.95;;;;;;;11.18;91.46;103074.94;6155110;23;20001;-82
2022/07/08 03:53:11;;;;;;;17.10;5.45;;;;;;;11.21;91.57;103072.28;6154949;23;20494;-86
2022/07/08 03:55:36;;;;;;;11.30;4.57;;;;;;;11.25;91.49;103070.44;6155225;23;20088;-82
2022/07/08 03:58:02;;;;;;;14.05;5.50;;;;;;;11.17;91.02;103057.72;6155249;23;20001;-84
2022/07/08 04:00:27;;;;;;;10.35;4.40;;;;;;;11.28;91.24;103068.59;6155114;23;20005;-86
2022/07/08 04:02:52;;;;;;;11.35;4.28;;;;;;;11.24;90.97;103061.00;6155007;23;20009;-80
2022/07/08 04:05:18;;;;;;;17.95;4.22;;;;;;;11.33;90.62;103065.88;6128548;23;20035;-85
2022/07/08 04:07:43;;;;;;;12.93;5.07;;;;;;;11.34;90.76;103076.19;6155001;23;20076;-86
2022/07/08 04:10:09;;;;;;;10.52;4.22;;;;;;;11.36;90.76;103076.13;6155411;23;20005;-86
2022/07/08 04:12:34;;;;;;;12.48;4.50;;;;;;;11.38;90.62;103072.59;6155019;23;20002;-86
2022/07/08 04:15:00;;;;;;;13.07;4.50;;;;;;;11.47;90.56;103071.47;6154940;23;20068;-85
2022/07/08 04:17:25;;;;;;;11.13;4.15;;;;;;;11.49;90.10;103064.50;6154198;23;20001;-82
2022/07/08 04:19:51;;;;;;;13.25;5.07;;;;;;;11.51;90.34;103067.91;6154296;23;20009;-84
2022/07/08 04:22:16;;;;;;;9.23;4.40;;;;;;;11.64;89.90;103076.97;6129262;23;20009;-82
2022/07/08 04:24:41;;;;;;;9.13;4.18;;;;;;;11.73;89.55;103074.09;6154988;23;20005;-74
2022/07/08 04:27:07;;;;;;;12.43;4.80;;;;;;;11.81;89.14;103067.88;6155076;23;20451;-86
2022/07/08 04:29:33;;;;;;;11.02;3.92;;;;;;;11.93;88.45;103088.19;6154956;23;20025;-75
2022/07/08 04:31:59;;;;;;;14.05;4.50;;;;;;;12.07;88.15;103079.03;6127794;23;20059;-85
2022/07/08 04:34:24;;;;;;;11.95;4.10;;;;;;;12.57;86.79;103079.03;6128758;23;20367;-86
2022/07/08 04:36:49;;;;;;;10.63;3.90;;;;;;;13.67;82.48;103068.91;6155199;23;20037;-85
2022/07/08 04:39:14;;;;;;;12.35;3.95;;;;;;;15.05;76.51;103071.63;6154946;23;20032;-84
2022/07/08 04:41:40;;;;;;;10.77;4.18;;;;;;;16.05;72.05;103076.34;6155364;23;20136;-73
2022/07/08 04:44:05;;;;;;;9.55;3.33;;;;;;;16.64;68.70;103080.25;6154794;23;20016;-86
2022/07/08 04:46:30;;;;;;;12.85;3.47;;;;;;;16.56;68.04;103085.03;6128874;23;20002;-76
2022/07/08 04:48:56;;;;;;;11.43;3.15;;;;;;;16.22;68.00;103085.91;6155272;23;20357;-85
2022/07/08 04:51:22;;;;;;;11.52;3.58;;;;;;;15.55;70.56;103100.47;6154697;23;20009;-85
2022/07/08 04:53:48;;;;;;;11.98;3.38;;;;;;;14.96;72.47;103085.91;6155017;23;20412;-85
2022/07/08 04:56:13;;;;;;;11.70;3.53;;;;;;;14.59;74.11;103086.69;6154869;23;20006;-82
2022/07/08 04:58:38;;;;;;;9.60;3.60;;;;;;;14.33;75.46;103100.75;6155318;23;20082;-75
2022/07/08 05:01:04;;;;;;;11.38;3.40;;;;;;;14.13;76.35;103104.19;6155198;23;20028;-86
2022/07/08 05:03:29;;;;;;;11.18;3.33;;;;;;;14.03;76.45;103108.09;6155039;23;20076;-86
2022/07/08 05:05:54;;;;;;;12.68;3.72;;;;;;;14.16;76.85;103111.03;6154773;23;20025;-84
2022/07/08 05:08:20;;;;;;;15.57;3.80;;;;;;;15.56;74.14;103122.16;6155358;23;20053;-85
2022/07/08 05:10:45;;;;;;;9.45;3.13;;;;;;;17.17;67.59;103103.47;6154793;23;20064;-81
2022/07/08 05:13:12;;;;;;;10.43;2.90;;;;;;;18.79;61.33;103088.88;6154538;23;20037;-81
2022/07/08 05:15:37;;;;;;;10.57;3.10;;;;;;;19.67;57.23;103098.13;6154811;23;20001;-76
2022/07/08 05:18:02;;;;;;;9.10;2.70;;;;;;;20.56;54.59;103119.22;6154451;23;20335;-79
2022/07/08 05:20:28;;;;;;;10.55;2.95;;;;;;;21.45;51.31;103120.84;6154582;23;20424;-80
2022/07/08 05:22:53;;;;;;;11.05;2.97;;;;;;;21.94;50.04;103122.47;6154628;23;20033;-76
2022/07/08 05:25:18;;;;;;;8.85;2.08;;;;;;;22.85;48.41;103123.34;6154850;23;20005;-75
2022/07/08 05:27:44;;;;;;;9.98;2.50;;;;;;;23.42;46.36;103116.16;6154744;23;20005;-76
2022/07/08 05:30:10;;;;;;;9.63;2.30;;;;;;;23.85;44.22;103100.25;6129096;23;20040;-75
2022/07/08 05:32:37;;;;;;;9.90;2.42;;;;;;;24.36;43.40;103104.75;6155360;23;20423;-81
2022/07/08 05:35:05;;;;;;;8.93;2.75;;;;;;;24.69;41.94;103119.50;6156802;23;20005;-79
2022/07/08 05:37:31;;;;;;;9.00;2.15;;;;;;;25.05;41.26;103122.56;6156099;23;20017;-82
2022/07/08 05:39:57;;;;;;;13.10;2.90;;;;;;;25.00;41.36;103136.16;6156501;23;20036;-82
2022/07/08 05:42:22;;;;;;;8.70;2.10;;;;;;;25.54;40.81;103134.84;6156753;23;20012;-82
2022/07/08 05:44:48;;;;;;;11.48;2.22;;;;;;;25.94;40.22;103136.53;6156735;23;20092;-76
2022/07/08 05:47:13;;;;;;;9.13;2.30;;;;;;;26.20;39.58;103115.59;6155017;23;20072;-73
2022/07/08 05:49:40;;;;;;;8.75;2.20;;;;;;;26.47;38.47;103120.97;6156497;23;20009;-74
2022/07/08 05:52:05;;;;;;;7.68;2.17;;;;;;;26.82;37.65;103119.38;6156332;23;20037;-75
2022/07/08 05:54:32;;;;;;;9.57;2.30;;;;;;;26.96;37.10;103131.31;6156079;23;20033;-75
2022/07/08 05:56:58;;;;;;;10.07;2.15;;;;;;;26.93;37.31;103113.03;6155789;23;20005;-75
2022/07/08 05:59:23;;;;;;;6.85;1.98;;;;;;;26.60;37.09;103115.31;6156523;23;20021;-74
2022/07/08 06:01:50;;;;;;;9.45;1.85;;;;;;;27.03;36.82;103137.72;6156018;23;20002;-76
2022/07/08 06:04:15;;;;;;;10.13;2.53;;;;;;;26.61;36.84;103114.34;6156141;23;20009;-78
2022/07/08 06:06:41;;;;;;;11.52;2.22;;;;;;;27.42;36.05;103138.28;6156406;23;20005;-75
2022/07/08 06:09:06;;;;;;;11.80;2.38;;;;;;;27.48;35.66;103131.53;6156362;23;20004;-77
2022/07/08 06:11:32;;;;;;;8.35;2.17;;;;;;;27.80;35.36;103144.28;6156584;23;20005;-76
2022/07/08 06:13:57;;;;;;;9.00;2.25;;;;;;;28.10;35.21;103146.47;6155787;23;20510;-75
2022/07/08 06:16:22;;;;;;;7.30;1.77;;;;;;;28.57;34.41;103143.47;6155801;23;20005;-76
2022/07/08 06:18:48;;;;;;;9.82;2.20;;;;;;;28.73;33.62;103137.38;6156349;23;20002;-75
2022/07/08 06:21:16;;;;;;;9.20;1.73;;;;;;;28.85;33.52;103118.31;6155765;23;20319;-77
2022/07/08 06:23:41;;;;;;;9.15;1.75;;;;;;;29.21;33.31;103141.22;6129831;23;20060;-80
2022/07/08 06:26:06;;;;;;;10.02;1.80;;;;;;;29.78;33.00;103139.41;6156538;23;20006;-77
2022/07/08 06:28:31;;;;;;;9.48;2.00;;;;;;;29.77;32.42;103113.78;6155943;23;20001;-76
2022/07/08 06:30:57;;;;;;;8.65;1.60;;;;;;;29.90;31.62;103107.94;6156163;23;20353;-77
2022/07/08 06:33:22;;;;;;;6.70;1.52;;;;;;;30.11;31.34;103144.75;6156243;23;20006;-80
2022/07/08 06:35:48;;;;;;;6.72;1.90;;;;;;;30.00;31.80;103143.22;6155672;23;20014;-79
2022/07/08 06:38:13;;;;;;;7.68;1.70;;;;;;;29.27;33.43;103128.06;6155507;23;20052;-80
2022/07/08 06:40:39;;;;;;;11.07;2.35;;;;;;;28.86;32.98;103127.13;6156245;23;20040;-76
2022/07/08 06:43:04;;;;;;;8.27;1.95;;;;;;;28.81;33.74;103126.78;6155917;23;20006;-74
2022/07/08 06:45:31;;;;;;;10.88;1.98;;;;;;;28.71;34.25;103147.31;6156269;23;20431;-76
2022/07/08 06:48:00;;;;;;;9.25;2.00;;;;;;;27.69;35.45;103135.56;6155796;23;20005;-79
2022/07/08 06:50:26;;;;;;;9.25;2.08;;;;;;;27.36;35.43;103149.50;6155942;23;20005;-77
2022/07/08 06:52:51;;;;;;;9.00;1.98;;;;;;;27.97;34.60;103149.56;6156006;23;20293;-79
2022/07/08 06:55:17;;;;;;;7.97;2.00;;;;;;;27.41;36.35;103153.38;6129082;23;20010;-78
2022/07/08 06:57:42;;;;;;;9.40;2.30;;;;;;;26.49;37.17;103158.75;6155591;23;20331;-79
2022/07/08 07:00:08;;;;;;;7.22;1.92;;;;;;;25.36;39.28;103115.34;6155942;23;20340;-79
2022/07/08 07:02:34;;;;;;;11.63;2.60;;;;;;;24.73;40.35;103115.63;6155777;23;19998;-79
2022/07/08 07:04:59;;;;;;;6.80;1.90;;;;;;;24.01;41.85;103107.75;6155616;23;20127;-79
2022/07/08 07:07:25;;;;;;;10.10;2.00;;;;;;;25.27;42.11;103142.63;6129889;23;20297;-80
2022/07/08 07:09:50;;;;;;;8.48;1.92;;;;;;;26.55;38.87;103146.75;6155813;23;20001;-79
2022/07/08 07:12:15;;;;;;;9.07;1.75;;;;;;;27.65;37.08;103143.97;6155644;23;20480;-79
2022/07/08 07:14:41;;;;;;;11.63;1.88;;;;;;;28.45;33.99;103142.09;6155547;23;20002;-79
2022/07/08 07:17:06;;;;;;;5.60;1.40;;;;;;;28.63;34.73;103149.97;6155565;23;20171;-79
2022/07/08 07:19:32;;;;;;;11.02;1.90;;;;;;;28.21;33.04;103135.59;6155407;23;20005;-79
2022/07/08 07:21:58;;;;;;;10.02;2.38;;;;;;;27.89;34.34;103138.88;6155056;23;20412;-78
2022/07/08 07:24:23;;;;;;;7.60;2.05;;;;;;;28.62;33.73;103138.50;6154984;23;20012;-79
2022/07/08 07:26:48;;;;;;;6.25;1.42;;;;;;;29.75;32.88;103138.91;6155421;23;20404;-75
2022/07/08 07:29:14;;;;;;;7.78;1.73;;;;;;;30.50;31.42;103150.94;6155071;23;20040;-78
2022/07/08 07:31:39;;;;;;;9.13;1.88;;;;;;;31.37;30.99;103150.88;6155127;23;20048;-78
2022/07/08 07:34:06;;;;;;;8.05;1.58;;;;;;;31.47;28.40;103138.09;6155451;23;20009;-79
2022/07/08 07:36:31;;;;;;;8.98;1.80;;;;;;;31.55;28.42;103147.88;6154793;23;20416;-77
2022/07/08 07:38:57;;;;;;;7.47;1.83;;;;;;;31.23;29.24;103143.63;6154793;23;20016;-79
2022/07/08 07:41:22;;;;;;;10.68;1.90;;;;;;;29.69;32.35;103148.41;6155403;23;20029;-79
2022/07/08 07:43:47;;;;;;;8.50;1.90;;;;;;;28.25;34.09;103146.75;6155382;23;20053;-77
2022/07/08 07:46:13;;;;;;;10.48;2.20;;;;;;;26.80;36.18;103154.00;6155285;23;20001;-79
2022/07/08 07:48:38;;;;;;;8.15;1.98;;;;;;;25.89;38.18;103114.97;6155227;23;20025;-77
2022/07/08 07:51:04;;;;;;;8.60;1.63;;;;;;;25.39;39.86;103123.03;6128400;23;20064;-77
2022/07/08 07:53:29;;;;;;;11.68;2.17;;;;;;;24.51;40.28;103115.81;6154821;23;20016;-77
2022/07/08 07:55:56;;;;;;;9.00;2.08;;;;;;;23.80;41.35;103122.75;6154575;23;20335;-79
2022/07/08 07:58:22;;;;;;;8.60;2.10;;;;;;;23.42;44.12;103158.34;6154801;23;20001;-77
2022/07/08 08:00:47;;;;;;;9.77;2.40;;;;;;;22.85;45.22;103122.50;6155149;23;20010;-78
2022/07/08 08:03:12;;;;;;;8.77;2.22;;;;;;;22.67;46.89;103144.97;6155140;23;20083;-79
2022/07/08 08:05:39;;;;;;;5.45;1.80;;;;;;;22.38;46.66;103155.97;6154983;23;20029;-77
2022/07/08 08:08:05;;;;;;;10.55;2.35;;;;;;;22.16;46.76;103148.03;6154407;23;20001;-76
2022/07/08 08:10:30;;;;;;;9.45;2.35;;;;;;;21.83;49.50;103159.22;6154659;23;20009;-78
2022/07/08 08:12:56;;;;;;;14.45;2.45;;;;;;;21.65;49.16;103162.28;6154724;23;20022;-77
2022/07/08 08:15:23;;;;;;;7.75;2.20;;;;;;;21.52;51.02;103148.31;6128326;23;20040;-78
2022/07/08 08:17:48;;;;;;;11.48;2.25;;;;;;;21.37;49.92;103144.19;6128394;23;20006;-78
2022/07/08 08:20:14;;;;;;;8.52;2.05;;;;;;;21.36;51.81;103155.66;6128649;23;20305;-78
2022/07/08 08:22:40;;;;;;;12.02;2.72;;;;;;;21.08;51.52;103152.34;6154805;23;20009;-78
2022/07/08 08:25:05;;;;;;;12.85;2.78;;;;;;;20.86;51.83;103158.28;6154821;23;20435;-84
2022/07/08 08:27:31;;;;;;;10.00;2.72;;;;;;;20.72;49.95;103161.00;6154798;23;20006;-82
2022/07/08 08:29:56;;;;;;;8.45;1.95;;;;;;;20.76;53.49;103165.13;6154946;23;20006;-82
2022/07/08 08:32:22;;;;;;;10.48;2.35;;;;;;;20.74;52.28;103166.97;6153365;23;20387;-83
2022/07/08 08:34:47;;;;;;;13.00;2.40;;;;;;;20.99;52.57;103162.66;6154301;23;20382;-79
2022/07/08 08:37:13;;;;;;;10.38;1.95;;;;;;;21.06;53.42;103151.63;6154897;23;20105;-84
2022/07/08 08:39:40;;;;;;;12.27;2.85;;;;;;;21.18;50.24;103157.78;6154385;23;20037;-83
2022/07/08 08:42:07;;;;;;;11.40;2.55;;;;;;;21.31;52.52;103165.66;6155088;23;20006;-78
2022/07/08 08:44:33;;;;;;;10.43;2.38;;;;;;;21.51;53.58;103165.06;6154924;23;20040;-83
2022/07/08 08:47:02;;;;;;;9.05;1.98;;;;;;;21.80;52.60;103157.66;6154979;23;20002;-84
2022/07/08 08:49:34;;;;;;;9.65;2.28;;;;;;;22.01;50.52;103158.69;6155064;23;20060;-83
2022/07/08 08:52:02;;;;;;;10.80;1.90;;;;;;;22.23;48.06;103149.25;6154458;23;20077;-83
2022/07/08 08:54:30;;;;;;;15.80;2.22;;;;;;;22.11;47.69;103139.63;6154245;23;20060;-83
2022/07/08 08:56:56;;;;;;;9.35;1.85;;;;;;;22.20;48.86;103152.09;6154930;23;20006;-83
2022/07/08 08:59:22;;;;;;;11.77;2.05;;;;;;;22.31;48.88;103147.69;6154562;23;20009;-85
2022/07/08 09:01:47;;;;;;;9.85;1.95;;;;;;;22.32;48.29;103143.28;6155141;23;20021;-83
2022/07/08 09:04:13;;;;;;;10.75;2.08;;;;;;;22.27;49.00;103119.94;6154478;23;20012;-81
2022/07/08 09:06:39;;;;;;;8.90;2.13;;;;;;;22.38;48.01;103119.09;6155311;23;20005;-82
2022/07/08 09:09:05;;;;;;;9.77;2.47;;;;;;;22.28;49.30;103139.19;6156270;23;20328;-81
2022/07/08 09:11:32;;;;;;;8.48;2.03;;;;;;;22.68;49.25;103144.84;6156494;23;20424;-81
2022/07/08 09:14:21;;;;;;;10.60;2.38;;;;;;;23.00;48.30;103136.25;6156312;23;20434;-79
2022/07/08 09:17:18;;;;;;;12.45;2.63;;;;;;;23.29;48.66;103142.66;6156289;23;20002;-81
2022/07/08 09:19:47;;;;;;;12.90;1.98;;;;;;;23.36;46.48;103117.47;6156476;23;20412;-80
2022/07/08 09:22:13;;;;;;;10.80;1.80;;;;;;;23.57;45.90;103111.41;6156345;23;20056;-82
2022/07/08 09:24:39;;;;;;;10.63;2.50;;;;;;;23.57;45.54;103133.34;6156677;23;20033;-82
2022/07/08 09:27:08;;;;;;;9.73;2.00;;;;;;;23.53;45.01;103145.13;6130242;23;20033;-81
2022/07/08 09:29:34;;;;;;;8.27;2.13;;;;;;;23.54;44.31;103144.16;6156589;23;20012;-80
2022/07/08 09:32:10;;;;;;;10.15;2.15;;;;;;;23.64;45.39;103146.91;6156153;23;20009;-81
2022/07/08 09:34:36;;;;;;;8.77;1.98;;;;;;;23.54;45.07;103119.56;6156698;23;20442;-82
2022/07/08 09:37:10;;;;;;;9.30;1.48;;;;;;;24.13;45.52;103143.66;6156548;23;20006;-81
2022/07/08 09:39:37;;;;;;;11.95;2.53;;;;;;;24.45;44.66;103132.19;6156040;23;20017;-83
2022/07/08 09:42:07;;;;;;;10.55;1.95;;;;;;;24.67;44.35;103120.59;6156683;23;20009;-83
2022/07/08 09:44:32;;;;;;;7.63;2.20;;;;;;;24.85;42.25;103132.22;6155964;23;20432;-82
2022/07/08 09:46:58;;;;;;;6.15;1.98;;;;;;;24.70;41.07;103137.03;6156584;23;20011;-81
2022/07/08 09:49:30;;;;;;;7.22;1.95;;;;;;;24.37;44.68;103143.41;6156179;23;20008;-83
2022/07/08 09:51:57;;;;;;;6.65;1.70;;;;;;;24.43;43.82;103140.25;6156430;23;20012;-84
2022/07/08 09:54:24;;;;;;;6.90;1.77;;;;;;;24.43;44.79;103147.34;6156012;23;20415;-84
2022/07/08 09:57:00;;;;;;;9.70;2.03;;;;;;;24.28;44.92;103142.34;6156239;23;20013;-83
2022/07/08 09:59:27;;;;;;;11.75;2.15;;;;;;;23.95;44.03;103114.38;6156062;23;20451;-84
2022/07/08 10:01:53;;;;;;;17.98;2.70;;;;;;;23.93;45.38;103134.78;6156215;23;20009;-82
2022/07/08 10:04:19;;;;;;;6.50;1.90;;;;;;;23.81;46.08;103119.13;6156246;23;20015;-82
2022/07/08 10:06:44;;;;;;;8.70;1.77;;;;;;;23.80;45.11;103141.22;6155924;23;20001;-82
2022/07/08 10:09:10;;;;;;;10.35;2.13;;;;;;;23.54;47.01;103144.16;6155850;23;20016;-81
2022/07/08 10:11:38;;;;;;;9.25;1.80;;;;;;;23.23;48.20;103127.34;6156254;23;20006;-83
2022/07/08 10:14:05;;;;;;;11.75;2.40;;;;;;;22.90;48.03;103107.16;6155683;23;20080;-83
2022/07/08 10:16:33;;;;;;;11.13;2.55;;;;;;;22.18;47.91;103028.50;6156336;23;20080;-78
2022/07/08 10:18:59;;;;;;;9.30;2.03;;;;;;;22.64;48.59;103125.00;6156137;23;20096;-79
2022/07/08 10:21:26;;;;;;;11.95;2.10;;;;;;;22.39;51.15;103083.06;6156150;23;20001;-83
2022/07/08 10:23:53;;;;;;;7.25;1.77;;;;;;;22.93;49.37;103154.34;6156041;23;20005;-80
2022/07/08 10:26:27;;;;;;;8.93;2.17;;;;;;;22.74;47.83;103148.81;6156181;23;20001;-83
2022/07/08 10:29:10;;;;;;;8.20;2.10;;;;;;;22.26;48.20;103080.56;6155895;23;20010;-79
2022/07/08 10:31:47;;;;;;;7.35;2.00;;;;;;;22.53;51.52;103128.47;6156192;23;20005;-81
2022/07/08 10:34:17;;;;;;;7.55;2.38;;;;;;;22.58;49.74;103141.25;6155552;23;20013;-82
2022/07/08 10:36:53;;;;;;;11.02;2.08;;;;;;;22.59;49.07;103148.19;6155852;23;20001;-81
2022/07/08 10:39:30;;;;;;;8.30;2.00;;;;;;;22.66;48.86;103138.88;6155199;23;20450;-82
2022/07/08 10:41:57;;;;;;;11.15;2.70;;;;;;;22.41;49.90;103099.59;6155979;23;20081;-80
2022/07/08 10:44:45;;;;;;;8.07;2.15;;;;;;;22.54;49.34;103145.94;6129668;23;20002;-81
2022/07/08 10:47:11;;;;;;;9.85;2.70;;;;;;;22.53;49.84;103138.16;6155713;23;20016;-77
2022/07/08 10:49:41;;;;;;;11.40;2.70;;;;;;;22.45;49.30;103122.09;6155647;23;19997;-77
2022/07/08 10:52:06;;;;;;;8.93;2.33;;;;;;;22.37;50.44;103140.28;6155641;23;20009;-77
2022/07/08 10:54:36;;;;;;;7.38;1.80;;;;;;;22.19;51.11;103108.31;6155226;23;20096;-76
2022/07/08 10:57:07;;;;;;;9.82;2.40;;;;;;;22.33;50.53;103134.44;6155889;23;20094;-80
2022/07/08 10:59:37;;;;;;;11.10;2.88;;;;;;;22.47;50.62;103134.19;6155811;23;20033;-80
2022/07/08 11:02:04;;;;;;;8.98;2.75;;;;;;;22.64;50.41;103129.41;6155829;23;20029;-79
2022/07/08 11:04:36;;;;;;;7.30;2.10;;;;;;;22.88;50.04;103123.06;6155857;23;20051;-77
2022/07/08 11:07:16;;;;;;;7.95;2.33;;;;;;;23.05;50.53;103129.66;6155839;23;20016;-76
2022/07/08 11:09:42;;;;;;;8.05;2.13;;;;;;;23.19;50.33;103129.38;6155693;23;20040;-80
2022/07/08 11:12:14;;;;;;;9.23;2.25;;;;;;;23.19;48.54;103118.00;6158339;23;20005;-80
2022/07/08 11:14:44;;;;;;;9.95;2.22;;;;;;;23.31;48.73;103132.00;6156358;23;20033;-81
2022/07/08 11:17:31;;;;;;;7.80;2.28;;;;;;;23.47;48.55;103133.25;6155555;23;20037;-80
2022/07/08 11:19:58;;;;;;;8.38;2.70;;;;;;;23.29;46.91;103128.63;6155534;23;20005;-80
2022/07/08 11:22:25;;;;;;;8.90;2.83;;;;;;;23.04;50.13;103080.53;6154963;23;20005;-75
2022/07/08 11:24:51;;;;;;;9.57;2.22;;;;;;;23.31;48.70;103129.38;6155518;23;20089;-80